sensor_id;sensor_type;location;lat;lon;timestamp;pressure;altitude;pressure_sealevel;temperature;humidity
25650;BME280;13505;45.196;5.696;2023-04-26T06:01:21;99263.19;;;10.28;65.52
25650;BME280;13505;45.196;5.696;2023-04-26T06:06:11;99282.72;;;10.84;61.44
25650;BME280;13505;45.196;5.696;2023-04-26T06:11:02;99269.75;;;10.99;60.84
25650;BME280;13505;45.196;5.696;2023-04-26T06:15:52;99275.91;;;11.55;58.23
25650;BME280;13505;45.196;5.696;2023-04-26T06:20:43;99273.47;;;11.70;57.44
25650;BME280;13505;45.196;5.696;2023-04-26T06:25:33;99281.75;;;11.62;57.69
25650;BME280;13505;45.196;5.696;2023-04-26T06:30:24;99275.75;;;11.22;58.27
25650;BME280;13505;45.196;5.696;2023-04-26T06:35:14;99274.31;;;10.95;59.05
25650;BME280;13505;45.196;5.696;2023-04-26T06:40:05;99278.03;;;11.29;57.88
25650;BME280;13505;45.196;5.696;2023-04-26T06:44:56;99281.72;;;11.25;59.11
25650;BME280;13505;45.196;5.696;2023-04-26T06:49:47;99268.28;;;11.49;57.26
25650;BME280;13505;45.196;5.696;2023-04-26T06:54:37;99276.59;;;12.49;55.41
25650;BME280;13505;45.196;5.696;2023-04-26T06:59:28;99269.53;;;12.32;54.21
25650;BME280;13505;45.196;5.696;2023-04-26T07:04:18;99272.50;;;12.77;52.53
25650;BME280;13505;45.196;5.696;2023-04-26T07:09:09;99260.16;;;13.25;51.70
25650;BME280;13505;45.196;5.696;2023-04-26T07:13:59;99260.91;;;13.11;51.67
25650;BME280;13505;45.196;5.696;2023-04-26T07:18:51;99254.25;;;12.88;51.39
25650;BME280;13505;45.196;5.696;2023-04-26T07:23:47;99247.78;;;13.26;51.81
25650;BME280;13505;45.196;5.696;2023-04-26T07:28:37;99240.25;;;13.18;47.89
25650;BME280;13505;45.196;5.696;2023-04-26T07:33:27;99241.88;;;13.53;48.35
25650;BME280;13505;45.196;5.696;2023-04-26T07:38:18;99233.16;;;14.12;47.79
25650;BME280;13505;45.196;5.696;2023-04-26T07:43:08;99234.13;;;13.80;48.85
25650;BME280;13505;45.196;5.696;2023-04-26T07:47:59;99227.97;;;13.49;49.39
25650;BME280;13505;45.196;5.696;2023-04-26T07:52:49;99227.16;;;13.31;49.29
25650;BME280;13505;45.196;5.696;2023-04-26T07:57:40;99222.75;;;14.23;47.68
25650;BME280;13505;45.196;5.696;2023-04-26T08:02:30;99225.03;;;15.02;44.57
25650;BME280;13505;45.196;5.696;2023-04-26T08:07:21;99216.56;;;14.83;45.18
25650;BME280;13505;45.196;5.696;2023-04-26T08:12:11;99215.00;;;15.07;43.87
25650;BME280;13505;45.196;5.696;2023-04-26T08:17:02;99231.16;;;14.75;44.23
25650;BME280;13505;45.196;5.696;2023-04-26T08:21:52;99220.00;;;15.12;43.90
25650;BME280;13505;45.196;5.696;2023-04-26T08:26:42;99223.53;;;15.81;43.53
25650;BME280;13505;45.196;5.696;2023-04-26T08:31:33;99228.25;;;14.49;42.79
25650;BME280;13505;45.196;5.696;2023-04-26T08:36:24;99237.19;;;14.63;41.71
25650;BME280;13505;45.196;5.696;2023-04-26T08:41:20;99238.81;;;15.09;41.84
25650;BME280;13505;45.196;5.696;2023-04-26T08:46:14;99238.03;;;15.49;42.83
25650;BME280;13505;45.196;5.696;2023-04-26T08:51:06;99232.13;;;16.51;40.71
25650;BME280;13505;45.196;5.696;2023-04-26T08:56:00;99236.59;;;16.89;40.44
25650;BME280;13505;45.196;5.696;2023-04-26T09:00:51;99228.13;;;16.32;40.31
25650;BME280;13505;45.196;5.696;2023-04-26T09:05:42;99225.59;;;16.94;41.38
25650;BME280;13505;45.196;5.696;2023-04-26T09:10:33;99221.97;;;17.08;37.90
25650;BME280;13505;45.196;5.696;2023-04-26T09:15:25;99218.63;;;17.41;39.00
25650;BME280;13505;45.196;5.696;2023-04-26T09:25:12;99214.78;;;16.71;38.59
25650;BME280;13505;45.196;5.696;2023-04-26T09:35:00;99208.94;;;18.00;36.25
25650;BME280;13505;45.196;5.696;2023-04-26T09:39:50;99202.47;;;17.32;36.75
25650;BME280;13505;45.196;5.696;2023-04-26T09:44:40;99196.56;;;17.99;37.93
25650;BME280;13505;45.196;5.696;2023-04-26T09:49:41;99197.84;;;18.87;36.33
25650;BME280;13505;45.196;5.696;2023-04-26T09:54:41;99190.78;;;19.74;35.19
25650;BME280;13505;45.196;5.696;2023-04-26T09:59:58;99185.84;;;20.33;33.98
25650;BME280;13505;45.196;5.696;2023-04-26T10:04:51;99180.97;;;19.74;33.17
25650;BME280;13505;45.196;5.696;2023-04-26T10:09:42;99178.56;;;19.38;33.46
25650;BME280;13505;45.196;5.696;2023-04-26T10:14:33;99164.13;;;20.26;32.46
25650;BME280;13505;45.196;5.696;2023-04-26T10:19:23;99156.06;;;20.57;33.55
25650;BME280;13505;45.196;5.696;2023-04-26T10:24:14;99157.91;;;20.57;32.15
25650;BME280;13505;45.196;5.696;2023-04-26T10:29:05;99150.34;;;20.31;31.64
25650;BME280;13505;45.196;5.696;2023-04-26T10:34:17;99135.47;;;21.09;31.97
25650;BME280;13505;45.196;5.696;2023-04-26T10:39:18;99122.09;;;21.48;31.17
25650;BME280;13505;45.196;5.696;2023-04-26T10:44:36;99107.66;;;21.59;30.70
25650;BME280;13505;45.196;5.696;2023-04-26T10:49:42;99108.81;;;20.87;32.67
25650;BME280;13505;45.196;5.696;2023-04-26T10:59:38;99095.44;;;20.15;32.41
25650;BME280;13505;45.196;5.696;2023-04-26T11:04:50;99091.66;;;20.78;33.07
25650;BME280;13505;45.196;5.696;2023-04-26T11:09:47;99072.84;;;21.19;30.80
25650;BME280;13505;45.196;5.696;2023-04-26T11:14:40;99065.34;;;21.33;30.86
25650;BME280;13505;45.196;5.696;2023-04-26T11:19:31;99055.16;;;22.04;29.38
25650;BME280;13505;45.196;5.696;2023-04-26T11:24:41;99065.66;;;21.87;29.65
25650;BME280;13505;45.196;5.696;2023-04-26T11:29:32;99063.09;;;22.06;26.37
25650;BME280;13505;45.196;5.696;2023-04-26T11:34:33;99052.28;;;22.43;26.92
25650;BME280;13505;45.196;5.696;2023-04-26T11:39:24;99044.50;;;22.40;27.56
25650;BME280;13505;45.196;5.696;2023-04-26T11:44:18;99026.94;;;22.92;26.90
25650;BME280;13505;45.196;5.696;2023-04-26T11:49:09;99027.41;;;23.06;25.81
25650;BME280;13505;45.196;5.696;2023-04-26T11:54:00;99019.16;;;23.07;24.39
25650;BME280;13505;45.196;5.696;2023-04-26T11:58:51;99011.91;;;23.26;23.11
25650;BME280;13505;45.196;5.696;2023-04-26T12:03:42;99009.38;;;23.24;23.07
25650;BME280;13505;45.196;5.696;2023-04-26T12:08:32;99016.47;;;23.44;22.94
25650;BME280;13505;45.196;5.696;2023-04-26T12:13:23;99001.41;;;23.94;23.26
25650;BME280;13505;45.196;5.696;2023-04-26T12:18:14;98998.59;;;23.95;19.88
25650;BME280;13505;45.196;5.696;2023-04-26T12:23:06;99002.63;;;23.65;18.54
25650;BME280;13505;45.196;5.696;2023-04-26T12:27:56;99002.78;;;23.37;21.42
25650;BME280;13505;45.196;5.696;2023-04-26T12:32:47;98999.09;;;23.38;22.11
25650;BME280;13505;45.196;5.696;2023-04-26T12:37:38;98988.25;;;23.82;23.19
25650;BME280;13505;45.196;5.696;2023-04-26T12:42:28;98980.97;;;24.09;24.13
25650;BME280;13505;45.196;5.696;2023-04-26T12:47:18;98974.00;;;24.50;22.71
25650;BME280;13505;45.196;5.696;2023-04-26T12:52:09;98960.94;;;24.12;22.22
25650;BME280;13505;45.196;5.696;2023-04-26T12:56:59;98955.50;;;24.55;21.21
25650;BME280;13505;45.196;5.696;2023-04-26T13:01:49;98958.19;;;24.72;20.30
25650;BME280;13505;45.196;5.696;2023-04-26T13:06:40;98956.53;;;24.95;20.07
25650;BME280;13505;45.196;5.696;2023-04-26T13:11:30;98946.28;;;24.91;18.96
25650;BME280;13505;45.196;5.696;2023-04-26T13:16:21;98944.91;;;24.70;18.16
25650;BME280;13505;45.196;5.696;2023-04-26T13:21:11;98956.66;;;24.52;19.56
25650;BME280;13505;45.196;5.696;2023-04-26T13:26:02;98959.88;;;24.56;19.60
25650;BME280;13505;45.196;5.696;2023-04-26T13:30:52;98961.31;;;24.25;19.94
25650;BME280;13505;45.196;5.696;2023-04-26T13:35:43;98949.69;;;24.17;19.96
25650;BME280;13505;45.196;5.696;2023-04-26T13:40:33;98958.81;;;24.24;18.68
25650;BME280;13505;45.196;5.696;2023-04-26T13:45:23;98951.78;;;23.96;18.67
25650;BME280;13505;45.196;5.696;2023-04-26T13:50:14;98966.00;;;22.28;18.65
25650;BME280;13505;45.196;5.696;2023-04-26T13:55:05;98963.44;;;23.70;20.76
25650;BME280;13505;45.196;5.696;2023-04-26T13:59:55;98958.28;;;23.86;21.09
25650;BME280;13505;45.196;5.696;2023-04-26T14:04:46;98949.69;;;23.82;22.11
25650;BME280;13505;45.196;5.696;2023-04-26T14:09:36;98931.69;;;24.34;20.49
25650;BME280;13505;45.196;5.696;2023-04-26T14:14:26;98937.94;;;23.91;19.23
25650;BME280;13505;45.196;5.696;2023-04-26T14:19:16;98946.13;;;24.08;21.67
25650;BME280;13505;45.196;5.696;2023-04-26T14:24:07;98943.59;;;24.06;21.99
25650;BME280;13505;45.196;5.696;2023-04-26T14:28:58;98932.22;;;23.51;19.88
25650;BME280;13505;45.196;5.696;2023-04-26T14:33:49;98933.63;;;23.64;21.67
25650;BME280;13505;45.196;5.696;2023-04-26T14:38:41;98944.22;;;23.31;23.04
25650;BME280;13505;45.196;5.696;2023-04-26T14:43:32;98945.66;;;23.78;21.99
25650;BME280;13505;45.196;5.696;2023-04-26T14:48:23;98947.09;;;23.64;23.96
25650;BME280;13505;45.196;5.696;2023-04-26T14:53:13;98939.63;;;23.49;24.40
25650;BME280;13505;45.196;5.696;2023-04-26T14:58:04;98952.91;;;23.86;24.50
25650;BME280;13505;45.196;5.696;2023-04-26T15:02:54;98949.22;;;23.87;23.29
25650;BME280;13505;45.196;5.696;2023-04-26T15:07:45;98956.66;;;23.58;24.13
25650;BME280;13505;45.196;5.696;2023-04-26T15:12:35;98956.06;;;22.29;24.81
25650;BME280;13505;45.196;5.696;2023-04-26T15:17:26;98953.16;;;22.22;26.11
25650;BME280;13505;45.196;5.696;2023-04-26T15:22:16;98947.69;;;22.78;26.77
25650;BME280;13505;45.196;5.696;2023-04-26T15:27:06;98949.28;;;22.89;25.46
25650;BME280;13505;45.196;5.696;2023-04-26T15:31:57;98969.78;;;22.90;24.93
25650;BME280;13505;45.196;5.696;2023-04-26T15:36:47;98954.09;;;23.04;26.20
25650;BME280;13505;45.196;5.696;2023-04-26T15:41:38;98946.19;;;23.02;25.88
25650;BME280;13505;45.196;5.696;2023-04-26T15:46:28;98945.97;;;22.95;25.98
25650;BME280;13505;45.196;5.696;2023-04-26T15:51:19;98936.59;;;22.99;26.29
25650;BME280;13505;45.196;5.696;2023-04-26T15:56:15;98940.66;;;22.85;26.44
25650;BME280;13505;45.196;5.696;2023-04-26T16:01:06;98936.91;;;22.42;26.96
25650;BME280;13505;45.196;5.696;2023-04-26T16:05:57;98945.47;;;22.09;28.85
25650;BME280;13505;45.196;5.696;2023-04-26T16:10:47;98943.47;;;21.83;27.70
25650;BME280;13505;45.196;5.696;2023-04-26T16:15:37;98934.06;;;21.79;28.68
25650;BME280;13505;45.196;5.696;2023-04-26T16:20:28;98933.16;;;21.88;29.60
25650;BME280;13505;45.196;5.696;2023-04-26T16:25:18;98935.97;;;21.87;29.56
25650;BME280;13505;45.196;5.696;2023-04-26T16:30:09;98933.94;;;21.71;29.89
25650;BME280;13505;45.196;5.696;2023-04-26T16:34:59;98921.13;;;21.55;30.67
25650;BME280;13505;45.196;5.696;2023-04-26T16:39:52;98946.38;;;21.62;29.81
25650;BME280;13505;45.196;5.696;2023-04-26T16:44:43;98948.91;;;21.64;29.99
25650;BME280;13505;45.196;5.696;2023-04-26T16:49:34;98943.84;;;21.51;30.55
25650;BME280;13505;45.196;5.696;2023-04-26T16:54:24;98931.63;;;21.38;31.18
25650;BME280;13505;45.196;5.696;2023-04-26T16:59:15;98941.47;;;20.90;31.72
25650;BME280;13505;45.196;5.696;2023-04-26T17:04:05;98940.34;;;20.92;32.56
25650;BME280;13505;45.196;5.696;2023-04-26T17:14:35;98936.50;;;20.66;33.15
25650;BME280;13505;45.196;5.696;2023-04-26T17:19:27;98931.88;;;20.58;34.54
25650;BME280;13505;45.196;5.696;2023-04-26T17:24:17;98946.53;;;20.44;33.92
25650;BME280;13505;45.196;5.696;2023-04-26T17:29:08;98948.25;;;20.45;34.27
25650;BME280;13505;45.196;5.696;2023-04-26T17:38:59;98945.81;;;20.42;33.52
25650;BME280;13505;45.196;5.696;2023-04-26T17:43:50;98955.09;;;20.28;34.31
25650;BME280;13505;45.196;5.696;2023-04-26T17:48:40;98945.06;;;20.10;35.82
25650;BME280;13505;45.196;5.696;2023-04-26T17:53:34;98965.47;;;20.01;34.08
25650;BME280;13505;45.196;5.696;2023-04-26T17:58:24;98965.75;;;19.98;34.96
